Accueil
METAR-TAF:

METAR-TAF

Aéroports :

Bermudes, Bermudes

Aéroport international L.F. Wade

latitude: 32-22N, longitude: 064-41W, altitude: 6 m

Observation

Le bulletin a été fait il y a 16 minutes, à 02:55 UTC
Vent 16 kt de est
Température 18°C
Humidité 68%
Pression 1026 hPa
Visibilité 10 km ou plus
Nuages épars à une hauteur de 3500 ft
Nuages épars à une hauteur de 5000 ft
Nuages fragmentés à une hauteur de 25000 ft

METAR: TXKF 250255Z 10016KT 9999 SCT035 SCT050 BKN250 18/12 Q1026

Heure: 00:11 (03:11 UTC)

Prévision

Le bulletin a été fait il y a 3 heures et 36 minutes, à 23:35 UTC
Prévision valable du 25 à 00 UTC au 25 à 24 UTC
Vent 18 kt de est
Visibilité 10 km ou plus
Nuages épars à une hauteur de 4000 ft
Nuages fragmentés à une hauteur de 5500 ft
Evoluant progressivement
du 25 à 15 UTC au 25 à 18 UTC
Vent 20 kt de sud-est

TAF: TXKF 242335Z 2500/2524 09018KT 9999 SCT040 BKN055 BECMG 2515/2518 14020KT

Observations et prévisions météorologiques de plus de 4000 aéroports (messages METAR et TAF).

Les stations disponibles sont représentées par des disques jaunes et rouges sur la carte.

Passer la souris dessus pour voir le nom de la station.

Cliquer dessus pour voir les observations et prévisions météorologiques.

Pour changer de carte: cliquez sur les boutons verts avec une croix noire pour zoomer, sur le bouton vert avec un tiret pour effectuer un zoom arrière, ou sur les flèches vertes pour les cartes adjacentes.


METAR-TAF: